Abqaiq, Saudi Arabia

11:04 AM AST on September 03, 2014 (GMT +0300)
King Fahd International | Change Station
CLOSE
Current Station
Airport
Location: Dammam King Fahd,
Elevation: 39 ft
Nearby Weather Stations

Elev 39 ft 26.43 °N, 49.80 °E | Updated 4 minutes ago

Clear
Clear
100 °F
Feels Like 109 °F
N
4
Wind Variable Wind from West

Today
High -- | Low -- °F
--% Chance of Precip.
Yesterday
High -- | Low -- °F
Precip. -- in
5:22 AM 5:59 PM
First Quarter, 60% visible
Pressure 29.59 in
Visibility 4.3 miles
Clouds Clear
Heat Index 109 °F
Dew Point 72 °F
Humidity 39%
Rainfall 0.00 in
Snow Depth Not available.
UV 12 out of 12
Pollen Not available.
Air Quality Not available.
Flu Activity Not available.
METAR OEDF 030800Z 27003KT 7000 SKC 38/22 Q1002 NOSIG

More Conditions Fewer Conditions

Pressure 29.59 in
Visibility 4.3 miles
Clouds Clear
Heat Index 109 °F
Dew Point 72 °F
Humidity 39%
Rainfall 0.00 in
Snow Depth Not available.
UV 12 out of 12
Pollen Not available.
Air Quality Not available.
Flu Activity Not available.
METAR OEDF 030800Z 27003KT 7000 SKC 38/22 Q1002 NOSIG

More Conditions Fewer Conditions

10-Day Weather Forecast

Almanac

Astronomy

Sep. 03, 2014 Rise Set
Actual Time 5:22 AM AST 5:59 PM AST
Civil Twilight 4:59 AM AST 6:22 PM AST
Nautical Twilight 4:31 AM AST 6:49 PM AST
Astronomical Twilight 4:03 AM AST 7:17 PM AST
Moon 1:00 PM AST No Moon Set
Length of Visible Light 13h 23m
Length of Day
12h 36m
Tomorrow will be 1m 28s shorter.
First Quarter, 60% of the Moon is Illuminated
Today
First Quarter
Sep 8
Full
Sep 15
Last Quarter
Sep 24
New
Oct 1
First Quarter

Yesterday's Extremes

Country Highs Country Lows

Community

WunderPhotos

Upload Photos

1,749,902 photos uploaded!

Nearby

Snow Depth

Not available.

Earthquake Activity

City Distance Mag. Time & Date
No recent earthquake activity has been reported nearby.
Minimum magnitude displayed is 2.5.

Coastal Water Temperatures

Place Temperature
No Stations Reporting

Nearby Weather Stations